sensor_id;sensor_type;location;lat;lon;timestamp;temperature;humidity
14733;DHT22;7457;50.960;6.830;2022-08-01T00:00:37;21.80;91.60
14733;DHT22;7457;50.960;6.830;2022-08-01T00:03:03;21.80;91.60
14733;DHT22;7457;50.960;6.830;2022-08-01T00:05:29;21.80;91.60
14733;DHT22;7457;50.960;6.830;2022-08-01T00:07:55;21.80;91.60
14733;DHT22;7457;50.960;6.830;2022-08-01T00:10:20;21.80;91.60
14733;DHT22;7457;50.960;6.830;2022-08-01T00:12:46;21.80;91.70
14733;DHT22;7457;50.960;6.830;2022-08-01T00:15:14;21.80;91.60
14733;DHT22;7457;50.960;6.830;2022-08-01T00:17:40;21.80;91.70
14733;DHT22;7457;50.960;6.830;2022-08-01T00:20:08;21.70;91.70
14733;DHT22;7457;50.960;6.830;2022-08-01T00:22:34;21.70;91.70
14733;DHT22;7457;50.960;6.830;2022-08-01T00:25:00;21.70;91.70
14733;DHT22;7457;50.960;6.830;2022-08-01T00:27:26;21.70;91.70
14733;DHT22;7457;50.960;6.830;2022-08-01T00:29:51;21.70;91.80
14733;DHT22;7457;50.960;6.830;2022-08-01T00:32:17;21.70;91.80
14733;DHT22;7457;50.960;6.830;2022-08-01T00:34:43;21.70;91.80
14733;DHT22;7457;50.960;6.830;2022-08-01T00:37:09;21.70;91.80
14733;DHT22;7457;50.960;6.830;2022-08-01T00:39:34;21.70;91.80
14733;DHT22;7457;50.960;6.830;2022-08-01T00:42:06;21.70;92.00
14733;DHT22;7457;50.960;6.830;2022-08-01T00:44:32;21.70;92.00
14733;DHT22;7457;50.960;6.830;2022-08-01T00:46:58;21.60;92.00
14733;DHT22;7457;50.960;6.830;2022-08-01T00:49:23;21.60;92.20
14733;DHT22;7457;50.960;6.830;2022-08-01T00:51:49;21.60;92.30
14733;DHT22;7457;50.960;6.830;2022-08-01T00:54:15;21.40;92.50
14733;DHT22;7457;50.960;6.830;2022-08-01T00:56:41;21.40;92.90
14733;DHT22;7457;50.960;6.830;2022-08-01T00:59:07;21.20;93.10
14733;DHT22;7457;50.960;6.830;2022-08-01T01:01:33;21.20;93.20
14733;DHT22;7457;50.960;6.830;2022-08-01T01:04:00;21.10;93.30
14733;DHT22;7457;50.960;6.830;2022-08-01T01:08:58;20.90;94.00
14733;DHT22;7457;50.960;6.830;2022-08-01T01:11:31;20.90;93.90
14733;DHT22;7457;50.960;6.830;2022-08-01T01:14:06;20.80;94.10
14733;DHT22;7457;50.960;6.830;2022-08-01T01:16:38;20.80;94.20
14733;DHT22;7457;50.960;6.830;2022-08-01T01:19:10;20.80;94.10
14733;DHT22;7457;50.960;6.830;2022-08-01T01:22:11;20.70;94.30
14733;DHT22;7457;50.960;6.830;2022-08-01T01:30:10;20.70;94.70
14733;DHT22;7457;50.960;6.830;2022-08-01T01:32:48;20.60;94.60
14733;DHT22;7457;50.960;6.830;2022-08-01T01:35:24;20.60;94.80
14733;DHT22;7457;50.960;6.830;2022-08-01T01:38:00;20.60;94.80
14733;DHT22;7457;50.960;6.830;2022-08-01T01:40:27;20.60;94.90
14733;DHT22;7457;50.960;6.830;2022-08-01T01:42:56;20.60;94.90
14733;DHT22;7457;50.960;6.830;2022-08-01T01:45:23;20.60;95.00
14733;DHT22;7457;50.960;6.830;2022-08-01T01:47:53;20.60;95.00
14733;DHT22;7457;50.960;6.830;2022-08-01T01:50:21;20.60;95.10
14733;DHT22;7457;50.960;6.830;2022-08-01T01:52:48;20.60;95.10
14733;DHT22;7457;50.960;6.830;2022-08-01T01:55:18;20.60;95.20
14733;DHT22;7457;50.960;6.830;2022-08-01T01:57:45;20.50;95.30
14733;DHT22;7457;50.960;6.830;2022-08-01T02:00:12;20.50;95.30
14733;DHT22;7457;50.960;6.830;2022-08-01T02:02:41;20.50;95.30
14733;DHT22;7457;50.960;6.830;2022-08-01T02:05:09;20.50;95.40
14733;DHT22;7457;50.960;6.830;2022-08-01T02:07:36;20.50;95.50
14733;DHT22;7457;50.960;6.830;2022-08-01T02:10:04;20.50;95.60
14733;DHT22;7457;50.960;6.830;2022-08-01T02:12:33;20.50;95.70
14733;DHT22;7457;50.960;6.830;2022-08-01T02:15:00;20.50;95.70
14733;DHT22;7457;50.960;6.830;2022-08-01T02:17:27;20.50;95.70
14733;DHT22;7457;50.960;6.830;2022-08-01T02:19:53;20.50;95.70
14733;DHT22;7457;50.960;6.830;2022-08-01T02:22:29;20.50;95.80
14733;DHT22;7457;50.960;6.830;2022-08-01T02:25:09;20.50;95.80
14733;DHT22;7457;50.960;6.830;2022-08-01T02:28:05;20.50;95.80
14733;DHT22;7457;50.960;6.830;2022-08-01T02:30:37;20.50;95.70
14733;DHT22;7457;50.960;6.830;2022-08-01T02:33:17;20.50;95.80
14733;DHT22;7457;50.960;6.830;2022-08-01T02:35:47;20.50;95.80
14733;DHT22;7457;50.960;6.830;2022-08-01T02:38:14;20.50;95.80
14733;DHT22;7457;50.960;6.830;2022-08-01T02:40:43;20.50;95.80
14733;DHT22;7457;50.960;6.830;2022-08-01T02:43:12;20.50;95.90
14733;DHT22;7457;50.960;6.830;2022-08-01T02:45:42;20.50;95.90
14733;DHT22;7457;50.960;6.830;2022-08-01T02:48:11;20.50;95.90
14733;DHT22;7457;50.960;6.830;2022-08-01T02:50:40;20.50;95.90
14733;DHT22;7457;50.960;6.830;2022-08-01T02:53:08;20.50;95.90
14733;DHT22;7457;50.960;6.830;2022-08-01T02:55:38;20.40;96.00
14733;DHT22;7457;50.960;6.830;2022-08-01T02:58:04;20.40;96.00
14733;DHT22;7457;50.960;6.830;2022-08-01T03:00:32;20.40;96.10
14733;DHT22;7457;50.960;6.830;2022-08-01T03:02:59;20.30;96.20
14733;DHT22;7457;50.960;6.830;2022-08-01T03:05:27;20.30;96.20
14733;DHT22;7457;50.960;6.830;2022-08-01T03:07:55;20.30;96.20
14733;DHT22;7457;50.960;6.830;2022-08-01T03:10:22;20.30;96.30
14733;DHT22;7457;50.960;6.830;2022-08-01T03:12:49;20.30;96.30
14733;DHT22;7457;50.960;6.830;2022-08-01T03:15:17;20.30;96.40
14733;DHT22;7457;50.960;6.830;2022-08-01T03:17:45;20.30;96.40
14733;DHT22;7457;50.960;6.830;2022-08-01T03:20:14;20.40;96.40
14733;DHT22;7457;50.960;6.830;2022-08-01T03:22:42;20.30;96.50
14733;DHT22;7457;50.960;6.830;2022-08-01T03:25:10;20.40;96.50
14733;DHT22;7457;50.960;6.830;2022-08-01T03:27:38;20.30;96.50
14733;DHT22;7457;50.960;6.830;2022-08-01T03:30:06;20.30;96.50
14733;DHT22;7457;50.960;6.830;2022-08-01T03:32:32;20.30;96.50
14733;DHT22;7457;50.960;6.830;2022-08-01T03:34:58;20.30;96.50
14733;DHT22;7457;50.960;6.830;2022-08-01T03:37:27;20.30;96.50
14733;DHT22;7457;50.960;6.830;2022-08-01T03:40:09;20.30;96.70
14733;DHT22;7457;50.960;6.830;2022-08-01T03:42:44;20.30;96.70
14733;DHT22;7457;50.960;6.830;2022-08-01T03:45:23;20.30;96.70
14733;DHT22;7457;50.960;6.830;2022-08-01T03:47:52;20.30;96.70
14733;DHT22;7457;50.960;6.830;2022-08-01T03:50:22;20.30;96.80
14733;DHT22;7457;50.960;6.830;2022-08-01T03:52:50;20.30;96.80
14733;DHT22;7457;50.960;6.830;2022-08-01T03:55:18;20.30;96.80
14733;DHT22;7457;50.960;6.830;2022-08-01T03:57:45;20.30;96.80
14733;DHT22;7457;50.960;6.830;2022-08-01T04:00:11;20.30;96.90
14733;DHT22;7457;50.960;6.830;2022-08-01T04:02:37;20.30;96.90
14733;DHT22;7457;50.960;6.830;2022-08-01T04:05:04;20.40;96.90
14733;DHT22;7457;50.960;6.830;2022-08-01T04:07:33;20.40;96.90
14733;DHT22;7457;50.960;6.830;2022-08-01T04:10:05;20.30;96.90
14733;DHT22;7457;50.960;6.830;2022-08-01T04:12:31;20.40;96.90
14733;DHT22;7457;50.960;6.830;2022-08-01T04:14:58;20.40;96.90
14733;DHT22;7457;50.960;6.830;2022-08-01T04:17:24;20.40;96.90
14733;DHT22;7457;50.960;6.830;2022-08-01T04:19:50;20.40;96.90
14733;DHT22;7457;50.960;6.830;2022-08-01T04:22:16;20.40;97.00
14733;DHT22;7457;50.960;6.830;2022-08-01T04:24:46;20.40;97.00
14733;DHT22;7457;50.960;6.830;2022-08-01T04:27:19;20.40;97.00
14733;DHT22;7457;50.960;6.830;2022-08-01T04:29:47;20.40;97.10
14733;DHT22;7457;50.960;6.830;2022-08-01T04:32:16;20.40;97.40
14733;DHT22;7457;50.960;6.830;2022-08-01T04:34:44;20.40;97.10
14733;DHT22;7457;50.960;6.830;2022-08-01T04:37:12;20.40;97.10
14733;DHT22;7457;50.960;6.830;2022-08-01T04:39:40;20.40;97.20
14733;DHT22;7457;50.960;6.830;2022-08-01T04:42:07;20.40;97.30
14733;DHT22;7457;50.960;6.830;2022-08-01T04:44:33;20.40;97.20
14733;DHT22;7457;50.960;6.830;2022-08-01T04:47:03;20.40;97.30
14733;DHT22;7457;50.960;6.830;2022-08-01T04:49:32;20.50;97.40
14733;DHT22;7457;50.960;6.830;2022-08-01T04:51:58;20.50;97.40
14733;DHT22;7457;50.960;6.830;2022-08-01T04:54:30;20.50;97.30
14733;DHT22;7457;50.960;6.830;2022-08-01T04:56:56;20.50;97.40
14733;DHT22;7457;50.960;6.830;2022-08-01T04:59:36;20.50;97.40
14733;DHT22;7457;50.960;6.830;2022-08-01T05:04:33;20.50;97.40
14733;DHT22;7457;50.960;6.830;2022-08-01T05:06:59;20.50;97.40
14733;DHT22;7457;50.960;6.830;2022-08-01T05:09:25;20.50;97.40
14733;DHT22;7457;50.960;6.830;2022-08-01T05:11:51;20.60;97.50
14733;DHT22;7457;50.960;6.830;2022-08-01T05:14:17;20.50;97.40
14733;DHT22;7457;50.960;6.830;2022-08-01T05:16:43;20.60;97.50
14733;DHT22;7457;50.960;6.830;2022-08-01T05:19:09;20.60;97.50
14733;DHT22;7457;50.960;6.830;2022-08-01T05:21:35;20.60;97.50
14733;DHT22;7457;50.960;6.830;2022-08-01T05:24:00;20.60;97.50
14733;DHT22;7457;50.960;6.830;2022-08-01T05:26:26;20.60;97.50
14733;DHT22;7457;50.960;6.830;2022-08-01T05:28:52;20.60;97.50
14733;DHT22;7457;50.960;6.830;2022-08-01T05:31:17;20.60;97.50
14733;DHT22;7457;50.960;6.830;2022-08-01T05:33:43;20.60;97.50
14733;DHT22;7457;50.960;6.830;2022-08-01T05:36:09;20.60;97.50
14733;DHT22;7457;50.960;6.830;2022-08-01T05:38:35;20.60;97.50
14733;DHT22;7457;50.960;6.830;2022-08-01T05:41:00;20.70;97.60
14733;DHT22;7457;50.960;6.830;2022-08-01T05:43:26;20.60;97.60
14733;DHT22;7457;50.960;6.830;2022-08-01T05:45:52;20.60;97.60
14733;DHT22;7457;50.960;6.830;2022-08-01T05:48:17;20.60;97.70
14733;DHT22;7457;50.960;6.830;2022-08-01T05:50:43;20.60;97.70
14733;DHT22;7457;50.960;6.830;2022-08-01T05:53:08;20.60;97.70
14733;DHT22;7457;50.960;6.830;2022-08-01T05:55:35;20.60;97.80
14733;DHT22;7457;50.960;6.830;2022-08-01T05:58:01;20.60;97.80
14733;DHT22;7457;50.960;6.830;2022-08-01T06:00:27;20.60;97.80
14733;DHT22;7457;50.960;6.830;2022-08-01T06:02:53;20.70;97.90
14733;DHT22;7457;50.960;6.830;2022-08-01T06:05:18;20.70;97.90
14733;DHT22;7457;50.960;6.830;2022-08-01T06:07:44;20.70;97.90
14733;DHT22;7457;50.960;6.830;2022-08-01T06:10:10;20.80;98.00
14733;DHT22;7457;50.960;6.830;2022-08-01T06:12:36;20.80;98.00
14733;DHT22;7457;50.960;6.830;2022-08-01T06:15:03;20.90;98.00
14733;DHT22;7457;50.960;6.830;2022-08-01T06:17:28;20.90;98.00
14733;DHT22;7457;50.960;6.830;2022-08-01T06:19:54;21.00;97.90
14733;DHT22;7457;50.960;6.830;2022-08-01T06:22:21;21.10;97.90
14733;DHT22;7457;50.960;6.830;2022-08-01T06:24:46;21.20;97.80
14733;DHT22;7457;50.960;6.830;2022-08-01T06:27:12;21.20;97.70
14733;DHT22;7457;50.960;6.830;2022-08-01T06:29:38;21.30;97.70
14733;DHT22;7457;50.960;6.830;2022-08-01T06:32:04;21.40;97.60
14733;DHT22;7457;50.960;6.830;2022-08-01T06:34:29;21.40;97.50
14733;DHT22;7457;50.960;6.830;2022-08-01T06:36:55;21.50;97.30
14733;DHT22;7457;50.960;6.830;2022-08-01T06:39:20;21.60;97.10
14733;DHT22;7457;50.960;6.830;2022-08-01T06:41:46;21.70;97.10
14733;DHT22;7457;50.960;6.830;2022-08-01T06:44:15;21.80;97.00
14733;DHT22;7457;50.960;6.830;2022-08-01T06:46:40;21.80;96.90
14733;DHT22;7457;50.960;6.830;2022-08-01T06:49:06;21.90;96.80
14733;DHT22;7457;50.960;6.830;2022-08-01T06:51:32;21.90;96.60
14733;DHT22;7457;50.960;6.830;2022-08-01T06:53:57;21.90;96.50
14733;DHT22;7457;50.960;6.830;2022-08-01T06:56:23;21.90;96.30
14733;DHT22;7457;50.960;6.830;2022-08-01T06:58:50;22.00;96.20
14733;DHT22;7457;50.960;6.830;2022-08-01T07:01:16;21.90;96.10
14733;DHT22;7457;50.960;6.830;2022-08-01T07:03:41;21.90;96.00
14733;DHT22;7457;50.960;6.830;2022-08-01T07:06:10;21.80;95.90
14733;DHT22;7457;50.960;6.830;2022-08-01T07:08:36;21.80;96.00
14733;DHT22;7457;50.960;6.830;2022-08-01T07:11:01;21.80;96.00
14733;DHT22;7457;50.960;6.830;2022-08-01T07:13:28;21.90;96.10
14733;DHT22;7457;50.960;6.830;2022-08-01T07:15:56;21.90;96.00
14733;DHT22;7457;50.960;6.830;2022-08-01T07:18:22;22.00;96.00
14733;DHT22;7457;50.960;6.830;2022-08-01T07:20:48;22.10;95.90
14733;DHT22;7457;50.960;6.830;2022-08-01T07:23:13;22.20;95.80
14733;DHT22;7457;50.960;6.830;2022-08-01T07:25:39;22.30;95.60
14733;DHT22;7457;50.960;6.830;2022-08-01T07:28:05;22.30;95.50
14733;DHT22;7457;50.960;6.830;2022-08-01T07:30:31;22.50;95.50
14733;DHT22;7457;50.960;6.830;2022-08-01T07:32:57;22.60;95.40
14733;DHT22;7457;50.960;6.830;2022-08-01T07:35:22;22.70;95.20
14733;DHT22;7457;50.960;6.830;2022-08-01T07:37:48;22.90;95.10
14733;DHT22;7457;50.960;6.830;2022-08-01T07:40:13;23.10;95.00
14733;DHT22;7457;50.960;6.830;2022-08-01T07:42:39;23.20;94.50
14733;DHT22;7457;50.960;6.830;2022-08-01T07:45:09;23.30;94.30
14733;DHT22;7457;50.960;6.830;2022-08-01T07:47:35;23.40;94.20
14733;DHT22;7457;50.960;6.830;2022-08-01T07:50:02;23.40;94.10
14733;DHT22;7457;50.960;6.830;2022-08-01T07:52:28;23.60;94.10
14733;DHT22;7457;50.960;6.830;2022-08-01T07:54:55;23.70;93.90
14733;DHT22;7457;50.960;6.830;2022-08-01T07:57:22;23.90;93.70
14733;DHT22;7457;50.960;6.830;2022-08-01T07:59:48;24.00;93.50
14733;DHT22;7457;50.960;6.830;2022-08-01T08:02:14;24.10;93.40
14733;DHT22;7457;50.960;6.830;2022-08-01T08:04:40;24.20;93.10
14733;DHT22;7457;50.960;6.830;2022-08-01T08:07:06;24.20;93.00
14733;DHT22;7457;50.960;6.830;2022-08-01T08:09:31;24.20;92.90
14733;DHT22;7457;50.960;6.830;2022-08-01T08:11:57;24.20;92.70
14733;DHT22;7457;50.960;6.830;2022-08-01T08:14:22;24.10;92.60
14733;DHT22;7457;50.960;6.830;2022-08-01T08:16:49;24.10;92.60
14733;DHT22;7457;50.960;6.830;2022-08-01T08:19:15;24.10;92.60
14733;DHT22;7457;50.960;6.830;2022-08-01T08:21:41;24.20;92.70
14733;DHT22;7457;50.960;6.830;2022-08-01T08:24:07;24.50;92.80
14733;DHT22;7457;50.960;6.830;2022-08-01T08:26:50;24.80;92.40
14733;DHT22;7457;50.960;6.830;2022-08-01T08:29:17;24.90;91.90
14733;DHT22;7457;50.960;6.830;2022-08-01T08:31:43;24.90;91.50
14733;DHT22;7457;50.960;6.830;2022-08-01T08:34:08;25.00;91.40
14733;DHT22;7457;50.960;6.830;2022-08-01T08:36:34;24.80;91.10
14733;DHT22;7457;50.960;6.830;2022-08-01T08:39:00;24.70;91.00
14733;DHT22;7457;50.960;6.830;2022-08-01T08:41:26;24.60;91.00
14733;DHT22;7457;50.960;6.830;2022-08-01T08:43:51;24.60;91.10
14733;DHT22;7457;50.960;6.830;2022-08-01T08:46:18;24.50;91.00
14733;DHT22;7457;50.960;6.830;2022-08-01T08:48:44;24.50;91.00
14733;DHT22;7457;50.960;6.830;2022-08-01T08:51:11;24.40;91.00
14733;DHT22;7457;50.960;6.830;2022-08-01T08:53:42;24.40;91.10
14733;DHT22;7457;50.960;6.830;2022-08-01T08:56:11;24.40;91.10
14733;DHT22;7457;50.960;6.830;2022-08-01T08:58:37;24.50;91.10
14733;DHT22;7457;50.960;6.830;2022-08-01T09:01:06;24.50;91.00
14733;DHT22;7457;50.960;6.830;2022-08-01T09:03:34;24.50;90.90
14733;DHT22;7457;50.960;6.830;2022-08-01T09:06:00;24.50;91.20
14733;DHT22;7457;50.960;6.830;2022-08-01T09:08:25;24.50;90.90
14733;DHT22;7457;50.960;6.830;2022-08-01T09:10:51;24.40;91.00
14733;DHT22;7457;50.960;6.830;2022-08-01T09:13:17;24.20;91.20
14733;DHT22;7457;50.960;6.830;2022-08-01T09:15:45;24.10;91.40
14733;DHT22;7457;50.960;6.830;2022-08-01T09:23:42;24.00;92.20
14733;DHT22;7457;50.960;6.830;2022-08-01T09:26:32;24.30;92.30
14733;DHT22;7457;50.960;6.830;2022-08-01T09:29:04;24.80;92.50
14733;DHT22;7457;50.960;6.830;2022-08-01T09:31:40;25.30;92.10
14733;DHT22;7457;50.960;6.830;2022-08-01T09:34:06;25.70;91.70
14733;DHT22;7457;50.960;6.830;2022-08-01T09:36:53;26.00;91.20
14733;DHT22;7457;50.960;6.830;2022-08-01T09:39:32;26.40;90.60
14733;DHT22;7457;50.960;6.830;2022-08-01T09:42:01;26.70;90.20
14733;DHT22;7457;50.960;6.830;2022-08-01T09:44:43;27.20;89.90
14733;DHT22;7457;50.960;6.830;2022-08-01T09:47:13;27.70;88.60
14733;DHT22;7457;50.960;6.830;2022-08-01T09:49:40;28.30;87.50
14733;DHT22;7457;50.960;6.830;2022-08-01T09:52:12;28.90;85.80
14733;DHT22;7457;50.960;6.830;2022-08-01T09:54:39;29.40;84.00
14733;DHT22;7457;50.960;6.830;2022-08-01T09:57:14;29.70;82.10
14733;DHT22;7457;50.960;6.830;2022-08-01T09:59:43;29.90;80.50
14733;DHT22;7457;50.960;6.830;2022-08-01T10:02:13;29.90;79.80
14733;DHT22;7457;50.960;6.830;2022-08-01T10:04:47;29.70;79.40
14733;DHT22;7457;50.960;6.830;2022-08-01T10:07:13;29.40;79.00
14733;DHT22;7457;50.960;6.830;2022-08-01T10:09:41;29.30;79.40
14733;DHT22;7457;50.960;6.830;2022-08-01T10:12:15;29.30;79.10
14733;DHT22;7457;50.960;6.830;2022-08-01T10:14:43;29.30;79.00
14733;DHT22;7457;50.960;6.830;2022-08-01T10:17:12;29.50;79.10
14733;DHT22;7457;50.960;6.830;2022-08-01T10:19:40;29.60;78.20
14733;DHT22;7457;50.960;6.830;2022-08-01T10:22:08;29.60;77.40
14733;DHT22;7457;50.960;6.830;2022-08-01T10:24:38;29.40;76.70
14733;DHT22;7457;50.960;6.830;2022-08-01T10:27:07;29.20;76.50
14733;DHT22;7457;50.960;6.830;2022-08-01T10:29:57;28.90;76.30
14733;DHT22;7457;50.960;6.830;2022-08-01T10:32:26;28.50;76.60
14733;DHT22;7457;50.960;6.830;2022-08-01T10:34:52;28.20;77.60
14733;DHT22;7457;50.960;6.830;2022-08-01T10:37:18;27.90;77.90
14733;DHT22;7457;50.960;6.830;2022-08-01T10:39:44;27.70;78.10
14733;DHT22;7457;50.960;6.830;2022-08-01T10:42:11;27.70;78.80
14733;DHT22;7457;50.960;6.830;2022-08-01T10:44:38;27.90;78.90
14733;DHT22;7457;50.960;6.830;2022-08-01T10:47:11;28.10;78.60
14733;DHT22;7457;50.960;6.830;2022-08-01T10:49:49;28.20;77.90
14733;DHT22;7457;50.960;6.830;2022-08-01T10:52:20;28.50;78.20
14733;DHT22;7457;50.960;6.830;2022-08-01T10:54:46;28.80;77.50
14733;DHT22;7457;50.960;6.830;2022-08-01T10:57:12;29.10;77.00
14733;DHT22;7457;50.960;6.830;2022-08-01T10:59:49;29.30;76.00
14733;DHT22;7457;50.960;6.830;2022-08-01T11:02:35;29.20;75.00
14733;DHT22;7457;50.960;6.830;2022-08-01T11:05:17;28.90;73.80
14733;DHT22;7457;50.960;6.830;2022-08-01T11:07:53;28.60;74.50
14733;DHT22;7457;50.960;6.830;2022-08-01T11:12:52;29.00;75.40
14733;DHT22;7457;50.960;6.830;2022-08-01T11:15:20;29.50;75.30
14733;DHT22;7457;50.960;6.830;2022-08-01T11:17:53;30.10;74.60
14733;DHT22;7457;50.960;6.830;2022-08-01T11:20:25;30.80;73.30
14733;DHT22;7457;50.960;6.830;2022-08-01T11:30:46;30.80;67.80
14733;DHT22;7457;50.960;6.830;2022-08-01T11:33:13;30.50;67.90
14733;DHT22;7457;50.960;6.830;2022-08-01T11:38:36;30.30;68.50
14733;DHT22;7457;50.960;6.830;2022-08-01T11:41:12;30.60;68.70
14733;DHT22;7457;50.960;6.830;2022-08-01T11:44:03;31.10;67.50
14733;DHT22;7457;50.960;6.830;2022-08-01T11:52:25;31.40;62.60
14733;DHT22;7457;50.960;6.830;2022-08-01T11:57:28;30.80;62.90
14733;DHT22;7457;50.960;6.830;2022-08-01T11:59:59;30.50;62.80
14733;DHT22;7457;50.960;6.830;2022-08-01T12:02:33;30.10;63.30
14733;DHT22;7457;50.960;6.830;2022-08-01T12:05:12;29.70;63.70
14733;DHT22;7457;50.960;6.830;2022-08-01T12:07:40;29.30;64.50
14733;DHT22;7457;50.960;6.830;2022-08-01T12:10:17;29.20;65.50
14733;DHT22;7457;50.960;6.830;2022-08-01T12:12:56;29.00;65.50
14733;DHT22;7457;50.960;6.830;2022-08-01T12:15:24;28.80;65.80
14733;DHT22;7457;50.960;6.830;2022-08-01T12:18:04;28.80;66.50
14733;DHT22;7457;50.960;6.830;2022-08-01T12:20:34;28.80;66.40
14733;DHT22;7457;50.960;6.830;2022-08-01T12:23:02;28.70;66.30
14733;DHT22;7457;50.960;6.830;2022-08-01T12:25:28;28.50;66.40
14733;DHT22;7457;50.960;6.830;2022-08-01T12:28:01;28.20;66.50
14733;DHT22;7457;50.960;6.830;2022-08-01T12:30:28;28.00;67.00
14733;DHT22;7457;50.960;6.830;2022-08-01T12:32:56;27.80;67.80
14733;DHT22;7457;50.960;6.830;2022-08-01T12:35:27;27.80;68.10
14733;DHT22;7457;50.960;6.830;2022-08-01T12:40:25;28.20;67.90
14733;DHT22;7457;50.960;6.830;2022-08-01T12:42:53;28.40;67.60
14733;DHT22;7457;50.960;6.830;2022-08-01T12:45:23;28.60;67.20
14733;DHT22;7457;50.960;6.830;2022-08-01T12:47:50;28.70;66.90
14733;DHT22;7457;50.960;6.830;2022-08-01T12:50:22;28.70;66.50
14733;DHT22;7457;50.960;6.830;2022-08-01T12:52:49;28.60;66.40
14733;DHT22;7457;50.960;6.830;2022-08-01T12:55:17;28.60;66.10
14733;DHT22;7457;50.960;6.830;2022-08-01T12:57:45;28.50;66.10
14733;DHT22;7457;50.960;6.830;2022-08-01T13:02:48;28.50;66.00
14733;DHT22;7457;50.960;6.830;2022-08-01T13:05:14;28.40;65.60
14733;DHT22;7457;50.960;6.830;2022-08-01T13:07:46;28.40;65.70
14733;DHT22;7457;50.960;6.830;2022-08-01T13:10:13;28.40;65.10
14733;DHT22;7457;50.960;6.830;2022-08-01T13:12:40;28.50;64.60
14733;DHT22;7457;50.960;6.830;2022-08-01T13:15:25;28.50;63.90
14733;DHT22;7457;50.960;6.830;2022-08-01T13:17:53;28.40;63.70
14733;DHT22;7457;50.960;6.830;2022-08-01T13:20:29;28.40;64.30
14733;DHT22;7457;50.960;6.830;2022-08-01T13:23:09;28.40;63.80
14733;DHT22;7457;50.960;6.830;2022-08-01T13:25:49;28.40;63.90
14733;DHT22;7457;50.960;6.830;2022-08-01T13:28:24;28.40;64.80
14733;DHT22;7457;50.960;6.830;2022-08-01T13:31:00;28.20;64.00
14733;DHT22;7457;50.960;6.830;2022-08-01T13:33:28;28.10;64.10
14733;DHT22;7457;50.960;6.830;2022-08-01T13:36:05;28.10;64.90
14733;DHT22;7457;50.960;6.830;2022-08-01T13:38:30;28.00;64.00
14733;DHT22;7457;50.960;6.830;2022-08-01T13:41:14;27.90;63.70
14733;DHT22;7457;50.960;6.830;2022-08-01T13:43:41;27.90;63.70
14733;DHT22;7457;50.960;6.830;2022-08-01T13:46:06;27.80;63.30
14733;DHT22;7457;50.960;6.830;2022-08-01T13:48:32;27.80;63.90
14733;DHT22;7457;50.960;6.830;2022-08-01T13:50:58;27.70;63.50
14733;DHT22;7457;50.960;6.830;2022-08-01T13:53:24;27.60;63.10
14733;DHT22;7457;50.960;6.830;2022-08-01T13:55:49;27.40;63.00
14733;DHT22;7457;50.960;6.830;2022-08-01T13:58:15;27.40;63.00
14733;DHT22;7457;50.960;6.830;2022-08-01T14:00:41;27.30;62.90
14733;DHT22;7457;50.960;6.830;2022-08-01T14:03:07;27.30;63.00
14733;DHT22;7457;50.960;6.830;2022-08-01T14:05:35;27.40;63.00
14733;DHT22;7457;50.960;6.830;2022-08-01T14:08:01;27.50;63.10
14733;DHT22;7457;50.960;6.830;2022-08-01T14:10:27;27.50;62.60
14733;DHT22;7457;50.960;6.830;2022-08-01T14:12:54;27.60;62.50
14733;DHT22;7457;50.960;6.830;2022-08-01T14:15:20;27.60;62.40
14733;DHT22;7457;50.960;6.830;2022-08-01T14:17:48;27.70;62.20
14733;DHT22;7457;50.960;6.830;2022-08-01T14:20:14;27.70;62.20
14733;DHT22;7457;50.960;6.830;2022-08-01T14:22:39;27.80;62.40
14733;DHT22;7457;50.960;6.830;2022-08-01T14:25:06;27.80;62.20
14733;DHT22;7457;50.960;6.830;2022-08-01T14:27:33;27.80;62.30
14733;DHT22;7457;50.960;6.830;2022-08-01T14:30:02;27.90;62.10
14733;DHT22;7457;50.960;6.830;2022-08-01T14:32:28;27.90;62.10
14733;DHT22;7457;50.960;6.830;2022-08-01T14:34:54;27.90;62.40
14733;DHT22;7457;50.960;6.830;2022-08-01T14:37:20;27.90;62.30
14733;DHT22;7457;50.960;6.830;2022-08-01T14:39:46;27.90;62.40
14733;DHT22;7457;50.960;6.830;2022-08-01T14:42:12;27.90;62.60
14733;DHT22;7457;50.960;6.830;2022-08-01T14:44:37;27.90;63.00
14733;DHT22;7457;50.960;6.830;2022-08-01T14:47:03;27.90;63.10
14733;DHT22;7457;50.960;6.830;2022-08-01T14:49:29;27.90;63.00
14733;DHT22;7457;50.960;6.830;2022-08-01T14:51:54;27.90;63.00
14733;DHT22;7457;50.960;6.830;2022-08-01T14:54:20;27.90;63.00
14733;DHT22;7457;50.960;6.830;2022-08-01T14:56:46;27.90;63.00
14733;DHT22;7457;50.960;6.830;2022-08-01T14:59:11;27.90;63.00
14733;DHT22;7457;50.960;6.830;2022-08-01T15:01:37;27.80;63.00
14733;DHT22;7457;50.960;6.830;2022-08-01T15:04:02;27.80;63.00
14733;DHT22;7457;50.960;6.830;2022-08-01T15:06:28;27.80;63.10
14733;DHT22;7457;50.960;6.830;2022-08-01T15:08:56;27.80;63.00
14733;DHT22;7457;50.960;6.830;2022-08-01T15:11:22;27.80;63.30
14733;DHT22;7457;50.960;6.830;2022-08-01T15:13:48;27.70;63.20
14733;DHT22;7457;50.960;6.830;2022-08-01T15:16:33;27.60;63.50
14733;DHT22;7457;50.960;6.830;2022-08-01T15:18:59;27.60;63.60
14733;DHT22;7457;50.960;6.830;2022-08-01T15:21:25;27.50;63.80
14733;DHT22;7457;50.960;6.830;2022-08-01T15:23:53;27.40;64.00
14733;DHT22;7457;50.960;6.830;2022-08-01T15:26:18;27.40;64.00
14733;DHT22;7457;50.960;6.830;2022-08-01T15:28:44;27.30;64.20
14733;DHT22;7457;50.960;6.830;2022-08-01T15:31:10;27.30;64.20
14733;DHT22;7457;50.960;6.830;2022-08-01T15:33:36;27.30;64.60
14733;DHT22;7457;50.960;6.830;2022-08-01T15:36:01;27.20;65.00
14733;DHT22;7457;50.960;6.830;2022-08-01T15:38:27;27.00;65.20
14733;DHT22;7457;50.960;6.830;2022-08-01T15:40:53;27.00;65.60
14733;DHT22;7457;50.960;6.830;2022-08-01T15:43:18;26.80;65.70
14733;DHT22;7457;50.960;6.830;2022-08-01T15:45:44;26.70;66.10
14733;DHT22;7457;50.960;6.830;2022-08-01T15:48:10;26.70;66.60
14733;DHT22;7457;50.960;6.830;2022-08-01T15:50:36;26.60;66.70
14733;DHT22;7457;50.960;6.830;2022-08-01T15:53:03;26.60;66.90
14733;DHT22;7457;50.960;6.830;2022-08-01T15:55:30;26.60;67.00
14733;DHT22;7457;50.960;6.830;2022-08-01T15:57:55;26.70;67.10
14733;DHT22;7457;50.960;6.830;2022-08-01T16:00:21;26.70;67.10
14733;DHT22;7457;50.960;6.830;2022-08-01T16:02:47;26.70;67.40
14733;DHT22;7457;50.960;6.830;2022-08-01T16:05:12;26.70;67.40
14733;DHT22;7457;50.960;6.830;2022-08-01T16:07:38;26.80;67.40
14733;DHT22;7457;50.960;6.830;2022-08-01T16:10:05;26.80;67.40
14733;DHT22;7457;50.960;6.830;2022-08-01T16:12:31;26.70;67.60
14733;DHT22;7457;50.960;6.830;2022-08-01T16:14:56;26.80;67.60
14733;DHT22;7457;50.960;6.830;2022-08-01T16:17:22;26.80;67.60
14733;DHT22;7457;50.960;6.830;2022-08-01T16:19:48;26.80;67.60
14733;DHT22;7457;50.960;6.830;2022-08-01T16:22:15;26.90;67.60
14733;DHT22;7457;50.960;6.830;2022-08-01T16:24:41;26.80;67.70
14733;DHT22;7457;50.960;6.830;2022-08-01T16:27:07;26.80;67.90
14733;DHT22;7457;50.960;6.830;2022-08-01T16:29:32;26.70;67.60
14733;DHT22;7457;50.960;6.830;2022-08-01T16:31:59;26.70;67.60
14733;DHT22;7457;50.960;6.830;2022-08-01T16:34:24;26.70;67.70